Flight Track Log - Related Links

Times and Time Zones

All times are in EDT time to prevent confusion due to time zone crossing. See the UCA597 flight status page for this flight to view local times or setup timezone preferences in your user account.

Time Position Orientation Groundspeed Altitude Reporting Facility
EDT Latitude Longitude Course Direction KTS MPH feet Rate Location/Type
Tue 07:56:50 PM 38.9500 -77.5167 North 155 178 1,700  Level Potomac TRACON
Tue 07:57:50 PM 38.9833 -77.5833 303° West 180 207 2,900 1,250 Climbing Potomac TRACON
Tue 07:58:50 PM 39.0000 -77.6333 293° West 179 206 4,200 1,250 Climbing Potomac TRACON
Tue 07:59:50 PM 39.0500 -77.6667 333° Northwest 197 227 5,400 1,200 Climbing Potomac TRACON
Tue 08:00:50 PM 39.1000 -77.6667 360° North 202 232 6,600 1,100 Climbing Potomac TRACON
Tue 08:01:50 PM 39.1500 -77.6167 38° Northeast 209 241 7,600 1,100 Climbing Potomac TRACON
Tue 08:02:00 PM 38.9729 -77.4563 North  Level FlightAware Approximate
Tue 08:02:50 PM 39.2000 -77.5833 27° Northeast 212 244 8,800  Level Potomac TRACON
Tue 08:04:53 PM 39.3039 -77.5575 11° North 203 234 10,700 956 Climbing Washington Center
Tue 08:05:52 PM 39.3644 -77.5378 14° North 203 234 11,700 908 Climbing Washington Center
Tue 08:06:52 PM 39.4253 -77.5178 14° North 208 239 12,500 1,013 Climbing Washington Center
Tue 08:08:32 PM 39.5386 -77.4853 12° North 222 255 14,400 1,050 Climbing New York Center
Tue 08:09:32 PM 39.5961 -77.4667 14° North 227 261 15,300 800 Climbing New York Center
Tue 08:10:32 PM 39.6531 -77.4531 10° North 227 261 16,000 800 Climbing New York Center
Tue 08:11:32 PM 39.7242 -77.4517 North 227 261 16,900 850 Climbing New York Center
Tue 08:12:32 PM 39.7825 -77.4519 360° North 227 261 17,700 1,050 Climbing New York Center
Tue 08:13:32 PM 39.8511 -77.4531 359° North 227 261 19,000 650 Climbing New York Center
Tue 08:14:32 PM 39.9119 -77.4506 North 232 267 19,000  Level New York Center
Tue 08:15:32 PM 39.9828 -77.4494 North 240 276 19,000  Level New York Center
Tue 08:16:32 PM 40.0558 -77.4483 North 258 297 19,000  Level New York Center
Tue 08:17:32 PM 40.1372 -77.4478 360° North 258 297 19,000  Level New York Center
Tue 08:18:32 PM 40.2039 -77.4461 North 258 297 19,000  Level New York Center
Tue 08:19:32 PM 40.2833 -77.4456 360° North 258 297 19,000  Level New York Center
Tue 08:20:32 PM 40.3561 -77.4472 359° North 258 297 19,000  Level New York Center
Tue 08:21:32 PM 40.4314 -77.4436 North 258 297 19,000  Level New York Center
Tue 08:22:32 PM 40.5042 -77.4450 359° North 258 297 19,000  Level New York Center
Tue 08:23:32 PM 40.5797 -77.4006 24° Northeast 273 314 19,000 -650 Level New York Center
Tue 08:24:32 PM 40.6519 -77.3392 33° Northeast 299 344 17,700 -1,000 Descending New York Center
Tue 08:25:32 PM 40.7306 -77.2753 32° Northeast 317 365 17,000 -350 Descending New York Center
Tue 08:26:32 PM 40.7983 -77.2161 33° Northeast 312 359 17,000 50 Level New York Center
Tue 08:27:32 PM 40.8661 -77.1592 32° Northeast 307 353 17,100 50 Climbing New York Center
Tue 08:28:32 PM 40.9358 -77.0997 33° Northeast 295 339 17,100  Level New York Center
Tue 08:29:32 PM 41.0036 -77.0403 33° Northeast 295 339 17,100 -50 Level New York Center
Tue 08:30:32 PM 41.0736 -76.9806 33° Northeast 295 339 17,000 -50 Descending New York Center
Tue 08:31:32 PM 41.1411 -76.9233 33° Northeast 295 339 17,000 50 Level New York Center
Tue 08:32:32 PM 41.2089 -76.8606 35° Northeast 295 339 17,100 50 Climbing New York Center
Tue 08:33:32 PM 41.2764 -76.8031 33° Northeast 295 339 17,100 -50 Level New York Center
Tue 08:34:32 PM 41.3442 -76.7428 34° Northeast 295 339 17,000 -50 Descending New York Center
Tue 08:35:32 PM 41.4119 -76.6797 35° Northeast 295 339 17,000  Level New York Center
Tue 08:36:32 PM 41.4728 -76.6297 32° Northeast 295 339 17,000 -50 Level New York Center
Tue 08:37:32 PM 41.5422 -76.5692 33° Northeast 295 339 16,900 -750 Descending New York Center
Tue 08:38:32 PM 41.6225 -76.5039 31° Northeast 304 350 15,500 -1,250 Descending New York Center
Tue 08:39:32 PM 41.7000 -76.4494 28° Northeast 309 356 14,400 -1,050 Descending New York Center
Tue 08:40:32 PM 41.7606 -76.4044 29° Northeast 309 356 13,400 -1,150 Descending New York Center
Tue 08:41:32 PM 41.8425 -76.3475 27° Northeast 297 342 12,100 -1,250 Descending New York Center
Tue 08:42:32 PM 41.9097 -76.2864 34° Northeast 297 342 10,900 -1,450 Descending New York Center
Tue 08:43:32 PM 41.9875 -76.2258 30° Northeast 291 335 9,200 -1,450 Descending New York Center
Tue 08:44:32 PM 42.0522 -76.1781 29° Northeast 285 328 8,000 -1,350 Descending New York Center
Tue 08:45:32 PM 42.1208 -76.1361 24° Northeast 280 322 6,500 -1,700 Descending New York Center
Tue 08:46:32 PM 42.1492 -76.0600 63° Northeast 234 269 4,600 -1,350 Descending New York Center
Tue 08:47:32 PM 42.1422 -75.9786 97° East 210 242 3,800 -750 Descending New York Center
Tue 08:48:32 PM 42.1567 -75.9375 65° Northeast 180 207 3,100 -800 Descending New York Center
Tue 08:49:32 PM 42.1858 -75.9372 360° North 92 106 2,200 2,950 Descending New York Center
Tue 08:50:32 PM 42.2072 -75.9192 32° Northeast 92 106 9,000 3,400 Climbing New York Center
Tue 08:51:32 PM 42.2289 -75.8986 35° Northeast 92 106 9,000  Level New York Center
Tue 08:52:32 PM 42.2506 -75.8806 32° Northeast 92 106 9,000  Level New York Center
Tue 08:54:00 PM 42.2000 -75.9667 North  Level FlightAware Approximate
Tue 09:01:00 PM 42.2084 -75.9796 North  Level Estimated
Tue 09:02:00 PM 42.2084 -75.9796 North  Level Estimated
Tue 09:03:00 PM 42.2084 -75.9796 North  Level Estimated
Tue 09:04:00 PM 42.2084 -75.9796 North  Level Estimated
Tue 09:05:00 PM 42.2084 -75.9796 North  Level Estimated
Tue 09:06:00 PM 42.2084 -75.9796 North  Level Estimated
Tue 09:07:00 PM 42.2084 -75.9796 North  Level Estimated
Tue 09:08:00 PM 42.2084 -75.9796 North  Level Estimated
Tue 09:09:00 PM 42.2084 -75.9796 North  Level Estimated
Tue 09:10:00 PM 42.2084 -75.9796 North  Level Estimated

Login

Don't have an account? Register now (free) for customized features, flight alerts, and more!